createdAt,value
2017-10-24T00:00:30.234Z,5.33
2017-10-24T00:02:58.474Z,5.70
2017-10-24T00:05:27.783Z,6.30
2017-10-24T00:07:56.044Z,6.00
2017-10-24T00:10:24.559Z,6.20
2017-10-24T00:12:52.561Z,5.93
2017-10-24T00:15:21.481Z,5.50
2017-10-24T00:17:50.077Z,5.40
2017-10-24T00:20:18.358Z,4.87
2017-10-24T00:22:46.816Z,4.20
2017-10-24T00:25:15.301Z,4.67
2017-10-24T00:27:43.689Z,4.37
2017-10-24T00:30:12.200Z,4.63
2017-10-24T00:32:40.298Z,4.80
2017-10-24T00:35:09.200Z,4.40
2017-10-24T00:37:38.757Z,4.50
2017-10-24T00:40:06.824Z,4.77
2017-10-24T00:42:35.215Z,4.93
2017-10-24T00:45:03.739Z,3.77
2017-10-24T00:47:31.834Z,4.43
2017-10-24T00:50:00.430Z,4.43
2017-10-24T00:52:28.497Z,4.10
2017-10-24T00:54:57.156Z,4.03
2017-10-24T00:57:25.657Z,3.87
2017-10-24T00:59:54.598Z,3.83
2017-10-24T01:02:22.698Z,3.90
2017-10-24T01:04:51.129Z,3.80
2017-10-24T01:07:19.237Z,3.47
2017-10-24T01:09:47.802Z,3.83
2017-10-24T01:12:16.021Z,3.93
2017-10-24T01:14:44.872Z,4.07
2017-10-24T01:17:13.807Z,4.13
2017-10-24T01:19:42.597Z,4.00
2017-10-24T01:22:11.913Z,3.60
2017-10-24T01:24:39.931Z,3.40
2017-10-24T01:27:07.896Z,3.90
2017-10-24T01:29:36.185Z,3.47
2017-10-24T01:32:04.769Z,3.70
2017-10-24T01:34:33.260Z,3.73
2017-10-24T01:37:01.109Z,4.03
2017-10-24T01:39:30.409Z,3.60
2017-10-24T01:41:58.532Z,4.17
2017-10-24T01:44:26.328Z,3.53
2017-10-24T01:46:54.101Z,3.60
2017-10-24T01:49:22.285Z,4.00
2017-10-24T01:51:50.011Z,3.60
2017-10-24T01:54:17.672Z,3.40
2017-10-24T01:56:45.280Z,3.30
2017-10-24T01:59:13.120Z,3.07
2017-10-24T02:01:40.975Z,3.20
2017-10-24T02:04:08.769Z,3.90
2017-10-24T02:06:36.561Z,3.10
2017-10-24T02:09:04.805Z,3.50
2017-10-24T02:11:33.106Z,4.13
2017-10-24T02:14:01.067Z,3.23
2017-10-24T02:16:29.618Z,3.63
2017-10-24T02:18:57.349Z,3.50
2017-10-24T02:21:25.243Z,3.60
2017-10-24T02:23:52.927Z,3.30
2017-10-24T02:26:20.613Z,4.13
2017-10-24T02:28:48.298Z,3.27
2017-10-24T02:31:15.987Z,3.03
2017-10-24T02:33:43.705Z,3.60
2017-10-24T02:36:11.445Z,3.77
2017-10-24T02:38:39.558Z,3.50
2017-10-24T02:41:07.833Z,3.10
2017-10-24T02:43:36.047Z,3.43
2017-10-24T02:46:04.624Z,3.17
2017-10-24T02:48:32.781Z,3.40
2017-10-24T02:51:00.623Z,3.10
2017-10-24T02:53:28.304Z,3.60
2017-10-24T02:55:55.986Z,3.60
2017-10-24T02:58:23.633Z,3.50
2017-10-24T03:00:51.292Z,3.70
2017-10-24T03:03:18.989Z,3.73
2017-10-24T03:05:47.266Z,3.40
2017-10-24T03:08:16.274Z,3.93
2017-10-24T03:10:44.596Z,3.80
2017-10-24T03:13:12.465Z,3.90
2017-10-24T03:15:41.049Z,3.57
2017-10-24T03:18:08.787Z,3.33
2017-10-24T03:20:36.668Z,3.77
2017-10-24T03:23:04.333Z,3.77
2017-10-24T03:25:32.832Z,3.37
2017-10-24T03:28:01.302Z,3.67
2017-10-24T03:30:29.770Z,3.23
2017-10-24T03:32:57.458Z,3.20
2017-10-24T03:35:25.190Z,3.20
2017-10-24T03:37:53.730Z,3.50
2017-10-24T03:40:22.464Z,3.17
2017-10-24T03:42:50.198Z,3.63
2017-10-24T03:45:17.835Z,4.10
2017-10-24T03:47:45.622Z,3.60
2017-10-24T03:50:13.646Z,2.97
2017-10-24T03:52:41.435Z,2.80
2017-10-24T03:55:09.160Z,4.20
2017-10-24T03:57:37.391Z,7.30
2017-10-24T04:00:05.530Z,7.20
2017-10-24T04:02:33.962Z,7.30
2017-10-24T04:05:01.779Z,7.60
2017-10-24T04:07:29.492Z,7.97
2017-10-24T04:09:57.241Z,8.97
2017-10-24T04:12:25.100Z,12.17
2017-10-24T04:14:52.810Z,6.10
2017-10-24T04:17:21.380Z,9.70
2017-10-24T04:19:49.051Z,5.83
2017-10-24T04:22:16.711Z,5.10
2017-10-24T04:24:44.837Z,4.87
2017-10-24T04:27:13.368Z,4.57
2017-10-24T04:29:41.440Z,5.73
2017-10-24T04:32:09.192Z,8.10
2017-10-24T04:34:36.945Z,6.43
2017-10-24T04:37:04.772Z,5.67
2017-10-24T04:39:33.008Z,6.47
2017-10-24T04:42:01.129Z,9.10
2017-10-24T04:44:29.128Z,8.47
2017-10-24T04:46:56.939Z,7.13
2017-10-24T04:49:24.863Z,7.00
2017-10-24T04:51:52.608Z,7.80
2017-10-24T04:54:20.483Z,5.30
2017-10-24T04:56:48.495Z,5.70
2017-10-24T04:59:16.279Z,5.30
2017-10-24T05:01:44.097Z,5.27
2017-10-24T05:04:12.341Z,5.70
2017-10-24T05:06:40.121Z,6.27
2017-10-24T05:09:08.455Z,4.50
2017-10-24T05:11:36.281Z,4.60
2017-10-24T05:14:04.133Z,4.60
2017-10-24T05:16:32.024Z,4.00
2017-10-24T05:18:59.861Z,4.17
2017-10-24T05:21:27.727Z,3.83
2017-10-24T05:23:56.644Z,4.17
2017-10-24T05:26:24.514Z,4.73
2017-10-24T05:28:52.198Z,3.70
2017-10-24T05:31:20.000Z,4.17
2017-10-24T05:33:47.841Z,3.80
2017-10-24T05:36:15.621Z,3.80
2017-10-24T05:38:43.499Z,3.47
2017-10-24T05:41:11.241Z,4.00
2017-10-24T05:43:40.146Z,3.50
2017-10-24T05:46:07.971Z,3.47
2017-10-24T05:48:37.285Z,3.50
2017-10-24T05:51:05.002Z,3.70
2017-10-24T05:53:34.085Z,3.70
2017-10-24T05:56:02.538Z,3.83
2017-10-24T05:58:30.937Z,4.10
2017-10-24T06:00:58.843Z,3.90
2017-10-24T06:03:26.633Z,3.73
2017-10-24T06:05:54.461Z,3.87
2017-10-24T06:08:22.174Z,4.70
2017-10-24T06:10:50.150Z,3.50
2017-10-24T06:13:18.075Z,4.03
2017-10-24T06:15:46.217Z,3.77
2017-10-24T06:18:14.050Z,3.53
2017-10-24T06:20:41.876Z,3.63
2017-10-24T06:23:09.565Z,4.37
2017-10-24T06:25:38.088Z,4.80
2017-10-24T06:28:05.779Z,5.10
2017-10-24T06:30:33.474Z,5.40
2017-10-24T06:33:01.281Z,3.80
2017-10-24T06:35:29.821Z,3.80
2017-10-24T06:37:58.719Z,4.03
2017-10-24T06:40:26.469Z,4.37
2017-10-24T06:42:55.249Z,4.20
2017-10-24T06:45:23.762Z,4.33
2017-10-24T06:47:52.721Z,4.27
2017-10-24T06:50:20.537Z,3.70
2017-10-24T06:52:48.359Z,4.13
2017-10-24T06:55:16.140Z,3.93
2017-10-24T06:57:43.878Z,4.90
2017-10-24T07:00:11.634Z,4.47
2017-10-24T07:02:39.308Z,4.77
2017-10-24T07:05:07.056Z,4.70
2017-10-24T07:07:34.775Z,4.60
2017-10-24T07:10:02.597Z,4.10
2017-10-24T07:12:30.348Z,4.00
2017-10-24T07:14:58.449Z,3.97
2017-10-24T07:17:26.469Z,4.20
2017-10-24T07:19:54.159Z,3.80
2017-10-24T07:22:21.820Z,3.67
2017-10-24T07:24:49.550Z,4.10
2017-10-24T07:27:17.837Z,3.77
2017-10-24T07:29:45.526Z,3.57
2017-10-24T07:32:13.248Z,3.80
2017-10-24T07:34:41.180Z,3.90
2017-10-24T07:37:08.959Z,3.50
2017-10-24T07:39:36.676Z,3.70
2017-10-24T07:42:04.671Z,3.87
2017-10-24T07:44:32.519Z,4.43
2017-10-24T07:47:00.300Z,4.90
2017-10-24T07:49:28.761Z,4.90
2017-10-24T07:51:56.515Z,5.33
2017-10-24T07:54:24.165Z,4.77
2017-10-24T07:56:51.957Z,5.80
2017-10-24T07:59:19.736Z,5.80
2017-10-24T08:01:47.687Z,6.13
2017-10-24T08:04:15.436Z,5.90
2017-10-24T08:06:43.273Z,6.33
2017-10-24T08:09:11.049Z,6.13
2017-10-24T08:11:38.705Z,5.00
2017-10-24T08:14:06.419Z,6.33
2017-10-24T08:16:34.165Z,5.00
2017-10-24T08:19:02.124Z,5.50
2017-10-24T08:21:29.842Z,4.77
2017-10-24T08:23:57.953Z,5.17
2017-10-24T08:26:26.540Z,4.77
2017-10-24T08:28:54.292Z,4.70
2017-10-24T08:31:22.232Z,4.83
2017-10-24T08:33:49.932Z,4.93
2017-10-24T08:36:17.615Z,4.43
2017-10-24T08:38:45.492Z,5.50
2017-10-24T08:41:13.508Z,5.67
2017-10-24T08:43:41.512Z,5.80
2017-10-24T08:46:09.189Z,6.20
2017-10-24T08:48:37.382Z,5.90
2017-10-24T08:51:05.077Z,5.90
2017-10-24T08:53:32.741Z,5.53
2017-10-24T08:56:01.250Z,5.30
2017-10-24T08:58:29.765Z,5.43
2017-10-24T09:00:58.059Z,5.30
2017-10-24T09:03:25.917Z,4.73
2017-10-24T09:33:10.353Z,3.17
2017-10-24T09:35:39.257Z,3.00
2017-10-24T09:38:07.077Z,3.83
2017-10-24T09:40:34.969Z,2.93
2017-10-24T09:43:02.736Z,2.77
2017-10-24T09:45:30.818Z,3.57
2017-10-24T09:47:58.480Z,2.87
2017-10-24T09:50:27.675Z,2.73
2017-10-24T09:52:55.622Z,3.93
2017-10-24T09:55:23.287Z,2.70
2017-10-24T09:57:51.152Z,2.60
2017-10-24T10:00:18.931Z,2.30
2017-10-24T10:02:47.005Z,2.57
2017-10-24T10:05:15.875Z,2.43
2017-10-24T10:07:44.377Z,2.83
2017-10-24T10:10:12.122Z,2.50
2017-10-24T10:12:39.797Z,2.80
2017-10-24T10:15:07.600Z,2.40
2017-10-24T10:17:36.149Z,2.20
2017-10-24T10:20:03.900Z,2.50
2017-10-24T10:22:31.773Z,2.73
2017-10-24T10:24:59.433Z,2.53
2017-10-24T10:27:27.614Z,2.63
2017-10-24T10:29:55.531Z,2.70
2017-10-24T10:32:23.289Z,3.00
2017-10-24T10:34:51.009Z,2.80
2017-10-24T10:37:18.846Z,3.00
2017-10-24T10:39:46.638Z,3.20
2017-10-24T10:42:14.290Z,3.00
2017-10-24T10:44:42.209Z,3.00
2017-10-24T10:47:10.020Z,2.53
2017-10-24T10:49:37.793Z,3.23
2017-10-24T10:52:06.027Z,2.57
2017-10-24T10:54:33.801Z,2.80
2017-10-24T10:57:01.585Z,3.00
2017-10-24T10:59:29.836Z,2.60
2017-10-24T11:01:57.624Z,2.70
2017-10-24T11:04:25.475Z,2.70
2017-10-24T11:06:53.376Z,2.80
2017-10-24T11:09:21.139Z,2.53
2017-10-24T11:11:50.136Z,2.80
2017-10-24T11:14:18.664Z,2.50
2017-10-24T11:16:47.549Z,2.90
2017-10-24T11:19:15.294Z,2.70
2017-10-24T11:21:43.828Z,2.80
2017-10-24T11:24:11.788Z,2.80
2017-10-24T11:26:39.636Z,2.53
2017-10-24T11:29:07.349Z,2.90
2017-10-24T11:31:35.830Z,2.90
2017-10-24T11:34:04.402Z,2.77
2017-10-24T11:36:32.235Z,3.00
2017-10-24T11:38:59.929Z,2.80
2017-10-24T11:41:28.071Z,2.37
2017-10-24T11:43:55.813Z,2.60
2017-10-24T11:46:24.333Z,2.70
2017-10-24T11:48:52.080Z,2.80
2017-10-24T11:51:19.817Z,2.77
2017-10-24T11:53:47.708Z,2.77
2017-10-24T11:56:16.410Z,2.80
2017-10-24T11:58:44.285Z,2.90
2017-10-24T12:01:12.081Z,2.40
2017-10-24T12:03:40.057Z,2.40
2017-10-24T12:06:08.069Z,2.67
2017-10-24T12:08:35.911Z,2.70
2017-10-24T12:11:03.907Z,2.80
2017-10-24T12:13:31.669Z,3.10
2017-10-24T12:15:59.406Z,3.20
2017-10-24T12:18:28.012Z,2.70
2017-10-24T12:20:55.772Z,2.63
2017-10-24T12:23:23.992Z,2.87
2017-10-24T12:25:52.188Z,2.77
2017-10-24T12:28:20.457Z,2.80
2017-10-24T12:30:48.224Z,2.70
2017-10-24T12:33:16.300Z,2.60
2017-10-24T12:35:43.998Z,2.70
2017-10-24T12:38:11.619Z,2.07
2017-10-24T12:40:39.315Z,2.47
2017-10-24T12:43:07.072Z,2.10
2017-10-24T12:45:34.840Z,2.27
2017-10-24T12:48:02.506Z,2.40
2017-10-24T12:50:30.204Z,2.30
2017-10-24T12:52:57.889Z,2.70
2017-10-24T12:55:25.654Z,2.43
2017-10-24T12:57:55.847Z,2.10
2017-10-24T13:00:24.461Z,2.20
2017-10-24T13:02:52.338Z,2.47
2017-10-24T13:05:20.877Z,2.30
2017-10-24T13:07:48.744Z,2.20
2017-10-24T13:10:16.453Z,2.80
2017-10-24T13:12:44.200Z,2.73
2017-10-24T13:15:11.957Z,2.50
2017-10-24T13:17:39.671Z,2.47
2017-10-24T13:20:07.428Z,2.47
2017-10-24T13:22:35.252Z,2.83
2017-10-24T13:25:03.012Z,2.63
2017-10-24T13:27:30.750Z,3.00
2017-10-24T13:29:58.405Z,3.00
2017-10-24T13:32:26.987Z,2.90
2017-10-24T13:34:55.187Z,2.73
2017-10-24T13:37:23.198Z,2.50
2017-10-24T13:39:51.032Z,2.60
2017-10-24T13:42:19.481Z,2.80
2017-10-24T13:44:47.236Z,2.73
2017-10-24T13:47:15.072Z,2.70
2017-10-24T13:49:42.907Z,2.53
2017-10-24T13:52:10.627Z,3.20
2017-10-24T13:54:38.514Z,2.90
2017-10-24T13:57:06.461Z,2.80
2017-10-24T13:59:34.185Z,2.50
2017-10-24T14:02:01.926Z,2.67
2017-10-24T14:04:35.319Z,2.30
2017-10-24T14:07:08.605Z,2.50
2017-10-24T14:09:41.922Z,2.80
2017-10-24T14:12:09.809Z,2.57
2017-10-24T14:14:38.377Z,3.10
2017-10-24T14:17:06.152Z,2.63
2017-10-24T14:19:33.956Z,2.30
2017-10-24T14:22:01.732Z,2.60
2017-10-24T14:24:29.601Z,3.00
2017-10-24T14:26:57.362Z,2.90
2017-10-24T14:29:25.116Z,2.70
2017-10-24T14:31:53.240Z,3.00
2017-10-24T14:34:20.930Z,2.80
2017-10-24T14:36:48.633Z,2.40
2017-10-24T14:39:16.286Z,3.10
2017-10-24T14:41:44.422Z,2.50
2017-10-24T14:44:12.116Z,3.33
2017-10-24T14:46:39.985Z,3.07
2017-10-24T14:49:08.676Z,2.93
2017-10-24T14:51:36.769Z,3.37
2017-10-24T14:54:04.490Z,3.10
2017-10-24T14:56:32.210Z,3.20
2017-10-24T14:58:59.918Z,2.90
2017-10-24T15:01:27.552Z,3.60
2017-10-24T15:03:55.229Z,3.13
2017-10-24T15:06:23.041Z,3.10
2017-10-24T15:08:50.791Z,2.90
2017-10-24T15:11:18.528Z,3.57
2017-10-24T15:13:46.978Z,3.40
2017-10-24T15:16:14.747Z,4.20
2017-10-24T15:18:42.588Z,3.50
2017-10-24T15:21:10.793Z,3.60
2017-10-24T15:23:38.972Z,3.67
2017-10-24T15:26:06.789Z,5.30
2017-10-24T15:28:34.917Z,4.53
2017-10-24T15:31:03.674Z,3.60
2017-10-24T15:33:31.480Z,3.53
2017-10-24T15:35:59.889Z,3.40
2017-10-24T15:38:27.505Z,3.40
2017-10-24T15:40:56.380Z,3.90
2017-10-24T15:43:24.127Z,3.30
2017-10-24T15:45:52.011Z,3.00
2017-10-24T15:48:19.905Z,4.27
2017-10-24T15:50:48.185Z,3.23
2017-10-24T15:53:15.945Z,3.27
2017-10-24T15:55:43.733Z,3.57
2017-10-24T15:58:11.532Z,2.90
2017-10-24T16:00:39.353Z,3.40
2017-10-24T16:03:08.461Z,3.30
2017-10-24T16:05:37.006Z,3.33
2017-10-24T16:08:04.841Z,3.10
2017-10-24T16:10:33.392Z,3.30
2017-10-24T16:13:01.093Z,3.23
2017-10-24T16:15:28.886Z,3.97
2017-10-24T16:17:56.639Z,4.17
2017-10-24T16:20:24.401Z,9.90
2017-10-24T16:22:52.156Z,4.80
2017-10-24T16:25:20.418Z,5.47
2017-10-24T16:27:48.212Z,4.43
2017-10-24T16:30:16.054Z,3.10
2017-10-24T16:32:43.929Z,2.40
2017-10-24T16:35:11.577Z,2.80
2017-10-24T16:37:39.263Z,2.40
2017-10-24T16:40:06.914Z,2.87
2017-10-24T16:42:35.617Z,2.63
2017-10-24T16:45:03.471Z,2.50
2017-10-24T16:47:31.422Z,2.80
2017-10-24T16:49:59.261Z,2.90
2017-10-24T16:52:27.064Z,3.07
2017-10-24T16:54:54.853Z,3.17
2017-10-24T16:57:22.570Z,2.90
2017-10-24T16:59:51.173Z,2.43
2017-10-24T17:02:18.894Z,3.20
2017-10-24T17:04:46.486Z,3.30
2017-10-24T17:07:14.165Z,4.53
2017-10-24T17:09:41.805Z,6.50
2017-10-24T17:12:09.568Z,6.33
2017-10-24T17:14:38.504Z,5.13
2017-10-24T17:17:06.216Z,7.00
2017-10-24T17:19:34.085Z,6.97
2017-10-24T17:22:01.850Z,5.63
2017-10-24T17:24:29.708Z,4.50
2017-10-24T17:26:57.963Z,3.93
2017-10-24T17:29:25.845Z,5.40
2017-10-24T17:31:53.710Z,5.63
2017-10-24T17:34:22.300Z,8.00
2017-10-24T17:36:50.862Z,11.47
2017-10-24T17:39:19.254Z,9.73
2017-10-24T17:41:48.353Z,10.30
2017-10-24T17:44:16.248Z,9.77
2017-10-24T17:46:44.056Z,9.97
2017-10-24T17:49:11.743Z,10.30
2017-10-24T17:51:39.436Z,10.07
2017-10-24T17:54:08.830Z,6.00
2017-10-24T17:56:36.575Z,5.10
2017-10-24T17:59:04.382Z,3.83
2017-10-24T18:01:32.095Z,5.07
2017-10-24T18:03:59.988Z,6.10
2017-10-24T18:06:27.739Z,5.53
2017-10-24T18:08:55.938Z,5.80
2017-10-24T18:11:23.667Z,4.97
2017-10-24T18:13:52.134Z,4.73
2017-10-24T18:16:19.858Z,3.60
2017-10-24T18:18:47.481Z,3.13
2017-10-24T18:21:15.278Z,2.50
2017-10-24T18:23:42.937Z,2.93
2017-10-24T18:26:11.996Z,6.43
2017-10-24T18:28:39.919Z,4.10
2017-10-24T18:31:07.847Z,2.83
2017-10-24T18:33:36.502Z,2.20
2017-10-24T18:36:04.230Z,2.50
2017-10-24T18:38:32.044Z,2.30
2017-10-24T18:41:00.393Z,2.60
2017-10-24T18:43:28.890Z,2.90
2017-10-24T18:45:57.987Z,3.60
2017-10-24T18:48:25.728Z,3.40
2017-10-24T18:50:53.477Z,4.33
2017-10-24T18:53:22.157Z,5.80
2017-10-24T18:55:51.298Z,4.50
2017-10-24T18:58:19.083Z,3.00
2017-10-24T19:00:46.814Z,2.47
2017-10-24T19:03:15.398Z,2.90
2017-10-24T19:05:43.174Z,3.17
2017-10-24T19:08:10.910Z,3.50
2017-10-24T19:10:38.577Z,3.03
2017-10-24T19:13:06.692Z,3.30
2017-10-24T19:15:34.458Z,3.30
2017-10-24T19:18:03.006Z,4.17
2017-10-24T19:20:30.744Z,2.97
2017-10-24T19:22:59.030Z,2.47
2017-10-24T19:25:28.000Z,2.20
2017-10-24T19:27:56.659Z,3.10
2017-10-24T19:30:25.680Z,3.40
2017-10-24T19:32:53.473Z,3.27
2017-10-24T19:35:21.954Z,3.40
2017-10-24T19:37:50.408Z,3.50
2017-10-24T19:40:18.152Z,2.97
2017-10-24T19:42:46.849Z,4.40
2017-10-24T19:45:15.271Z,9.53
2017-10-24T19:47:43.638Z,3.80
2017-10-24T19:50:11.510Z,3.37
2017-10-24T19:52:40.720Z,3.30
2017-10-24T19:55:09.258Z,3.70
2017-10-24T19:57:37.822Z,4.30
2017-10-24T20:00:06.016Z,5.77
2017-10-24T20:02:34.226Z,6.70
2017-10-24T20:05:01.948Z,6.50
2017-10-24T20:07:29.593Z,7.20
2017-10-24T20:09:57.454Z,7.40
2017-10-24T20:12:25.552Z,6.50
2017-10-24T20:14:54.488Z,5.73
2017-10-24T20:17:22.619Z,6.07
2017-10-24T20:19:51.530Z,5.70
2017-10-24T20:22:19.184Z,5.77
2017-10-24T20:24:46.942Z,5.10
2017-10-24T20:27:15.817Z,5.50
2017-10-24T20:29:43.505Z,4.90
2017-10-24T20:32:11.192Z,5.43
2017-10-24T20:34:39.689Z,5.93
2017-10-24T20:37:07.537Z,6.87
2017-10-24T20:39:35.296Z,7.13
2017-10-24T20:42:04.106Z,6.13
2017-10-24T20:44:32.199Z,5.10
2017-10-24T20:47:00.048Z,5.40
2017-10-24T20:49:27.954Z,5.47
2017-10-24T20:51:55.715Z,6.80
2017-10-24T20:54:23.459Z,8.07
2017-10-24T20:56:51.820Z,6.90
2017-10-24T20:59:19.717Z,6.20
2017-10-24T21:01:47.480Z,6.20
2017-10-24T21:04:16.378Z,9.27
2017-10-24T21:06:44.145Z,10.37
2017-10-24T21:09:12.609Z,7.97
2017-10-24T21:11:40.367Z,8.37
2017-10-24T21:14:08.533Z,7.40
2017-10-24T21:16:36.749Z,6.43
2017-10-24T21:19:04.628Z,4.90
2017-10-24T21:21:32.789Z,4.83
2017-10-24T21:24:00.627Z,4.20
2017-10-24T21:26:28.858Z,4.10
2017-10-24T21:28:57.488Z,4.37
2017-10-24T21:31:25.662Z,3.90
2017-10-24T21:33:53.539Z,4.03
2017-10-24T21:36:21.931Z,3.60
2017-10-24T21:38:50.052Z,3.60
2017-10-24T21:41:17.925Z,3.63
2017-10-24T21:43:45.706Z,3.80
2017-10-24T21:46:14.377Z,3.40
2017-10-24T21:48:42.978Z,3.70
2017-10-24T21:51:11.850Z,3.50
2017-10-24T21:53:40.846Z,3.40
2017-10-24T21:56:08.533Z,3.40
2017-10-24T21:58:36.650Z,3.97
2017-10-24T22:01:05.160Z,3.87
2017-10-24T22:03:34.004Z,3.60
2017-10-24T22:06:01.664Z,3.20
2017-10-24T22:08:29.358Z,3.20
2017-10-24T22:10:57.021Z,4.20
2017-10-24T22:13:25.119Z,3.17
2017-10-24T22:15:53.680Z,3.43
2017-10-24T22:18:21.503Z,3.13
2017-10-24T22:20:50.241Z,3.40
2017-10-24T22:23:18.107Z,2.80
2017-10-24T22:25:47.390Z,3.30
2017-10-24T22:28:15.833Z,3.23
2017-10-24T22:30:44.539Z,3.47
2017-10-24T22:33:12.297Z,3.57
2017-10-24T22:35:40.605Z,3.10
2017-10-24T22:38:08.479Z,3.47
2017-10-24T22:40:36.625Z,3.10
2017-10-24T22:43:04.359Z,3.33
2017-10-24T22:45:33.278Z,3.57
2017-10-24T22:48:01.141Z,3.60
2017-10-24T22:50:29.344Z,3.50
2017-10-24T22:52:57.123Z,3.90
2017-10-24T22:55:25.791Z,3.37
2017-10-24T22:57:55.058Z,4.30
2017-10-24T23:00:23.245Z,3.53
2017-10-24T23:02:51.400Z,3.93
2017-10-24T23:05:19.569Z,4.17
2017-10-24T23:07:48.151Z,4.47
2017-10-24T23:10:16.339Z,4.60
2017-10-24T23:12:44.213Z,3.90
2017-10-24T23:15:12.388Z,4.57
2017-10-24T23:17:41.593Z,4.00
2017-10-24T23:20:09.437Z,3.87
2017-10-24T23:22:37.213Z,4.60
2017-10-24T23:25:05.814Z,4.30
2017-10-24T23:27:33.980Z,4.50
2017-10-24T23:30:02.667Z,4.07
2017-10-24T23:32:30.809Z,4.40
2017-10-24T23:34:59.012Z,4.13
2017-10-24T23:37:27.546Z,4.33
2017-10-24T23:39:56.404Z,4.20
2017-10-24T23:42:24.723Z,4.43
2017-10-24T23:44:53.843Z,4.20
2017-10-24T23:47:22.101Z,3.87
2017-10-24T23:49:50.275Z,4.10
2017-10-24T23:52:17.978Z,4.33
2017-10-24T23:54:46.482Z,4.50
2017-10-24T23:57:14.552Z,4.50
2017-10-24T23:59:43.055Z,4.03
